Terminal Aerodrome Forecast
Issued by NWS Cleveland, OH

Home | Current Version | Previous Version | Text Only | Print | Product List | Glossary On
Versions: 1 2 3 4 5 6 7 8 9 10 11 12 13 14 15 16 17 18 19
666
FTUS41 KCLE 041739
TAFERI
TAF
KERI 041739Z 0418/0518 26014KT P6SM -SHSN BKN015 OVC025
      TEMPO 0418/0421 3SM -SHSN
     FM050000 28014KT P6SM -SHSN BKN015 OVC025
      TEMPO 0507/0511 3SM -SHSN
     FM051300 29013KT P6SM BKN015 OVC025
      TEMPO 0516/0518 SCT025 BKN035=

USA.gov is the U.S. government's official web portal to all federal, state and local government web resources and services.